createdAt,value
2018-11-20T00:02:18.758Z,4.60
2018-11-20T00:07:33.517Z,4.70
2018-11-20T00:12:47.254Z,4.80
2018-11-20T00:17:54.165Z,4.80
2018-11-20T00:23:07.610Z,4.70
2018-11-20T00:28:11.951Z,4.60
2018-11-20T00:33:32.553Z,4.40
2018-11-20T00:38:46.309Z,4.30
2018-11-20T00:44:04.150Z,4.20
2018-11-20T00:49:27.950Z,4.20
2018-11-20T00:54:41.631Z,4.10
2018-11-20T01:00:03.988Z,4.10
2018-11-20T01:05:25.159Z,4.10
2018-11-20T01:10:52.090Z,4.10
2018-11-20T01:16:09.845Z,4.10
2018-11-20T01:21:24.930Z,4.10
2018-11-20T01:26:48.953Z,4.10
2018-11-20T01:32:05.947Z,4.10
2018-11-20T01:37:23.907Z,4.10
2018-11-20T01:42:37.459Z,4.10
2018-11-20T01:47:50.948Z,4.10
2018-11-20T01:53:11.471Z,4.10
2018-11-20T01:58:38.607Z,4.10
2018-11-20T02:03:53.940Z,4.10
2018-11-20T02:09:07.483Z,4.10
2018-11-20T02:14:49.993Z,4.10
2018-11-20T02:20:04.849Z,4.10
2018-11-20T02:25:25.526Z,4.10
2018-11-20T02:30:39.008Z,4.10
2018-11-20T02:35:53.860Z,4.10
2018-11-20T02:41:24.307Z,4.10
2018-11-20T02:46:33.399Z,4.10
2018-11-20T02:51:46.897Z,4.10
2018-11-20T02:57:13.916Z,4.10
2018-11-20T03:02:27.461Z,4.10
2018-11-20T03:07:41.327Z,4.10
2018-11-20T03:13:00.115Z,4.10
2018-11-20T03:18:13.845Z,4.10
2018-11-20T03:23:23.828Z,4.10
2018-11-20T03:28:48.145Z,4.00
2018-11-20T03:34:13.462Z,4.00
2018-11-20T03:39:24.391Z,4.00
2018-11-20T03:44:27.161Z,3.90
2018-11-20T03:49:40.910Z,3.90
2018-11-20T03:55:01.838Z,3.90
2018-11-20T04:00:16.718Z,3.90
2018-11-20T04:05:37.401Z,3.90
2018-11-20T04:10:58.095Z,3.90
2018-11-20T04:16:01.787Z,3.90
2018-11-20T04:21:16.649Z,3.90
2018-11-20T04:26:30.289Z,3.90
2018-11-20T04:32:25.652Z,3.90
2018-11-20T04:37:40.865Z,3.80
2018-11-20T04:42:52.758Z,3.80
2018-11-20T04:48:05.384Z,3.80
2018-11-20T04:53:32.194Z,3.90
2018-11-20T04:58:55.526Z,3.80
2018-11-20T05:04:08.985Z,3.90
2018-11-20T05:09:24.363Z,3.90
2018-11-20T05:14:37.815Z,3.90
2018-11-20T05:19:51.466Z,3.90
2018-11-20T05:25:06.326Z,3.90
2018-11-20T05:30:36.568Z,3.90
2018-11-20T05:35:54.191Z,3.90
2018-11-20T05:41:21.087Z,3.90
2018-11-20T05:46:34.528Z,4.00
2018-11-20T05:52:04.620Z,4.00
2018-11-20T05:57:15.194Z,4.00
2018-11-20T06:02:45.297Z,4.10
2018-11-20T06:07:58.636Z,4.10
2018-11-20T06:13:13.462Z,4.10
2018-11-20T06:18:28.541Z,4.10
2018-11-20T06:23:31.137Z,4.10
2018-11-20T06:28:50.337Z,4.10
2018-11-20T06:34:20.631Z,4.10
2018-11-20T06:39:35.516Z,4.10
2018-11-20T06:45:08.482Z,4.10
2018-11-20T06:50:22.381Z,4.10
2018-11-20T06:55:39.931Z,4.10
2018-11-20T07:00:54.153Z,4.10
2018-11-20T07:06:09.084Z,4.10
2018-11-20T07:11:26.943Z,4.20
2018-11-20T07:16:52.550Z,4.20
2018-11-20T07:22:03.260Z,4.20
2018-11-20T07:27:11.834Z,4.20
2018-11-20T07:32:25.502Z,4.30
2018-11-20T07:37:39.270Z,4.20
2018-11-20T07:43:03.549Z,4.20
2018-11-20T07:48:30.614Z,4.30
2018-11-20T07:53:54.319Z,4.30
2018-11-20T07:59:27.523Z,4.30
2018-11-20T08:04:48.079Z,4.40
2018-11-20T08:10:01.949Z,4.50
2018-11-20T08:15:06.665Z,4.60
2018-11-20T08:20:19.880Z,4.50
2018-11-20T08:25:43.985Z,4.50
2018-11-20T08:30:58.842Z,4.50
2018-11-20T08:36:18.981Z,4.50
2018-11-20T08:41:26.991Z,4.50
2018-11-20T08:46:51.091Z,4.50
2018-11-20T08:52:08.696Z,4.60
2018-11-20T08:57:22.910Z,4.60
2018-11-20T09:02:36.466Z,4.70
2018-11-20T09:07:55.023Z,4.70
2018-11-20T09:13:15.618Z,4.80
2018-11-20T09:18:45.706Z,4.80
2018-11-20T09:23:55.571Z,4.80
2018-11-20T09:29:12.940Z,4.80
2018-11-20T09:34:27.981Z,4.90
2018-11-20T09:39:45.482Z,5.00
2018-11-20T09:46:12.331Z,5.10
2018-11-20T09:51:35.696Z,5.10
2018-11-20T09:56:50.603Z,5.20
2018-11-20T10:01:56.316Z,5.30
2018-11-20T10:07:09.776Z,5.30
2018-11-20T10:12:43.018Z,5.30
2018-11-20T10:17:57.882Z,5.30
2018-11-20T10:23:11.231Z,5.30
2018-11-20T10:28:24.956Z,5.40
2018-11-20T10:33:38.406Z,5.40
2018-11-20T10:38:42.671Z,5.40
2018-11-20T10:44:03.696Z,5.60
2018-11-20T10:49:18.615Z,5.60
2018-11-20T10:54:37.571Z,5.60
2018-11-20T10:59:57.813Z,5.60
2018-11-20T11:05:11.183Z,5.70
2018-11-20T11:10:19.555Z,5.80
2018-11-20T11:15:30.554Z,5.90
2018-11-20T11:20:54.288Z,6.10
2018-11-20T11:26:08.166Z,6.10
2018-11-20T11:31:21.470Z,6.20
2018-11-20T11:36:39.362Z,6.20
2018-11-20T11:42:03.322Z,6.20
2018-11-20T11:47:16.705Z,6.10
2018-11-20T11:52:33.130Z,6.20
2018-11-20T11:58:06.035Z,6.20
2018-11-20T12:03:23.723Z,6.40
2018-11-20T12:08:50.684Z,6.40
2018-11-20T12:14:13.383Z,6.30
2018-11-20T12:19:28.273Z,6.30
2018-11-20T12:24:52.216Z,6.40
2018-11-20T12:30:02.287Z,6.30
2018-11-20T12:35:15.628Z,6.20
2018-11-20T12:40:22.860Z,6.10
2018-11-20T12:45:38.563Z,6.10
2018-11-20T12:50:56.495Z,6.10
2018-11-20T12:56:20.333Z,6.20
2018-11-20T13:01:35.086Z,6.20
2018-11-20T13:06:47.739Z,6.20
2018-11-20T13:11:57.502Z,6.10
2018-11-20T13:17:21.392Z,6.00
2018-11-20T13:22:37.490Z,6.00
2018-11-20T13:27:54.276Z,6.00
2018-11-20T13:33:09.304Z,6.00
2018-11-20T13:38:36.098Z,6.10
2018-11-20T13:43:52.288Z,6.10
2018-11-20T13:49:19.421Z,6.00
2018-11-20T13:54:34.560Z,6.00
2018-11-20T13:59:48.062Z,5.90
2018-11-20T14:05:03.096Z,5.80
2018-11-20T14:10:09.678Z,5.80
2018-11-20T14:15:23.407Z,5.90
2018-11-20T14:20:37.188Z,5.80
2018-11-20T14:25:54.020Z,5.80
2018-11-20T14:31:11.856Z,5.80
2018-11-20T14:36:25.393Z,5.70
2018-11-20T14:41:43.633Z,5.80
2018-11-20T14:46:57.300Z,5.80
2018-11-20T14:52:20.898Z,5.70
2018-11-20T14:57:35.741Z,5.60
2018-11-20T15:03:08.809Z,5.50
2018-11-20T15:08:22.355Z,5.50
2018-11-20T15:13:42.984Z,5.50
2018-11-20T15:19:03.861Z,5.50
2018-11-20T15:24:17.354Z,5.50
2018-11-20T15:29:31.053Z,5.50
2018-11-20T15:34:58.036Z,5.40
2018-11-20T15:40:15.899Z,5.40
2018-11-20T15:45:30.742Z,5.40
2018-11-20T15:50:54.848Z,5.40
2018-11-20T15:56:21.962Z,5.40
2018-11-20T16:01:43.541Z,5.30
2018-11-20T16:07:04.097Z,5.20
2018-11-20T16:12:28.968Z,5.20
2018-11-20T16:17:46.914Z,5.20
2018-11-20T16:23:01.841Z,5.20
2018-11-20T16:28:16.759Z,5.10
2018-11-20T16:33:30.442Z,5.10
2018-11-20T16:38:57.416Z,5.00
2018-11-20T16:44:21.104Z,5.00
2018-11-20T16:49:38.749Z,5.00
2018-11-20T16:54:47.304Z,4.90
2018-11-20T17:00:05.145Z,4.90
2018-11-20T17:05:25.277Z,4.90
2018-11-20T17:10:42.965Z,4.90
2018-11-20T17:15:58.948Z,4.80
2018-11-20T17:21:14.167Z,4.90
2018-11-20T17:26:22.759Z,4.90
2018-11-20T17:31:36.380Z,4.80
2018-11-20T17:36:49.756Z,4.80
2018-11-20T17:41:59.236Z,4.80
2018-11-20T17:47:19.897Z,4.80
2018-11-20T17:52:33.845Z,4.80
2018-11-20T17:57:48.693Z,4.80
2018-11-20T18:03:22.443Z,4.80
2018-11-20T18:08:37.298Z,4.80
2018-11-20T18:14:03.233Z,4.80
2018-11-20T18:19:16.988Z,4.80
2018-11-20T18:24:46.769Z,4.80
2018-11-20T18:29:50.215Z,4.90
2018-11-20T18:34:57.941Z,4.80
2018-11-20T18:40:11.489Z,4.80
2018-11-20T18:45:33.271Z,4.80
2018-11-20T18:50:59.291Z,4.80
2018-11-20T18:56:19.825Z,4.90
2018-11-20T19:01:34.855Z,4.80
2018-11-20T19:06:55.817Z,4.80
2018-11-20T19:12:28.658Z,4.80
2018-11-20T19:17:49.439Z,4.80
2018-11-20T19:23:03.097Z,4.70
2018-11-20T19:28:17.970Z,4.60
2018-11-20T19:33:47.340Z,4.60
2018-11-20T19:39:08.500Z,4.50
2018-11-20T19:44:26.304Z,4.30
2018-11-20T19:49:43.835Z,4.30
2018-11-20T19:54:57.528Z,4.30
2018-11-20T20:00:07.768Z,4.40
2018-11-20T20:05:21.602Z,4.30
2018-11-20T20:10:36.603Z,4.30
2018-11-20T20:15:46.467Z,4.30
2018-11-20T20:21:04.236Z,4.30
2018-11-20T20:26:31.145Z,4.20
2018-11-20T20:31:48.674Z,4.20
2018-11-20T20:37:02.406Z,4.00
2018-11-20T20:42:23.338Z,3.80
2018-11-20T20:47:36.958Z,3.70
2018-11-20T20:52:50.369Z,3.60
2018-11-20T20:59:09.414Z,3.60
2018-11-20T21:04:38.270Z,3.50
2018-11-20T21:09:49.301Z,3.60
2018-11-20T21:15:05.787Z,3.70
2018-11-20T21:20:18.121Z,3.70
2018-11-20T21:25:31.965Z,3.80
2018-11-20T21:30:56.115Z,3.80
2018-11-20T21:36:18.906Z,3.90
2018-11-20T21:41:44.882Z,3.90
2018-11-20T21:47:16.566Z,4.10
2018-11-20T21:52:33.082Z,4.30
2018-11-20T21:57:49.797Z,4.40
2018-11-20T22:03:04.429Z,4.50
2018-11-20T22:08:07.097Z,4.40
2018-11-20T22:13:30.232Z,4.50
2018-11-20T22:18:43.995Z,4.40
2018-11-20T22:24:00.405Z,4.50
2018-11-20T22:29:12.865Z,4.50
2018-11-20T22:34:41.501Z,4.60
2018-11-20T22:39:53.996Z,4.70
2018-11-20T22:44:58.063Z,4.70
2018-11-20T22:50:02.923Z,4.70
2018-11-20T22:55:34.891Z,4.80
2018-11-20T23:00:47.250Z,4.80
2018-11-20T23:05:59.299Z,4.80
2018-11-20T23:10:53.946Z,4.80
2018-11-20T23:15:48.657Z,4.90
2018-11-20T23:20:43.272Z,4.80
2018-11-20T23:25:37.985Z,4.80
2018-11-20T23:30:32.647Z,4.70
2018-11-20T23:35:27.393Z,4.70
2018-11-20T23:40:21.998Z,4.60
2018-11-20T23:45:16.927Z,4.50
2018-11-20T23:50:13.548Z,4.50
2018-11-20T23:55:11.486Z,4.30
